Time;durP1;ratioP1;P1;durP2;ratioP2;P2;SDS_P1;SDS_P2;PMS_P1;PMS_P2;Temp;Humidity;BMP_temperature;BMP_pressure;BME280_temperature;BME280_humidity;BME280_pressure;Samples;Min_cycle;Max_cycle;Signal;HPM_P1;HPM_P2
2022/04/08 05:00:19;;;;;;;4.65;1.13;;;8.20;93.00;;;;;;5905406;23;20110;31
2022/04/08 05:02:47;;;;;;;5.28;1.10;;;8.20;92.90;;;;;;4847618;29;20046;-84
2022/04/08 05:05:15;;;;;;;4.60;0.80;;;8.20;93.40;;;;;;4843453;29;20136;-83
2022/04/08 05:07:42;;;;;;;5.15;1.10;;;8.20;93.50;;;;;;4846013;29;20123;-84
2022/04/08 05:10:10;;;;;;;4.78;1.23;;;8.20;93.30;;;;;;4845275;29;20137;-83
2022/04/08 05:12:37;;;;;;;5.65;1.17;;;8.10;93.50;;;;;;4844167;29;20081;-84
2022/04/08 05:15:06;;;;;;;3.25;0.80;;;8.20;93.10;;;;;;4844019;29;20057;-83
2022/04/08 05:17:35;;;;;;;4.95;0.90;;;8.30;93.50;;;;;;4848464;29;20140;-83
2022/04/08 05:20:02;;;;;;;3.40;0.90;;;8.20;93.40;;;;;;4848480;29;20053;-82
2022/04/08 05:22:29;;;;;;;5.35;1.00;;;8.20;93.40;;;;;;4848965;29;20140;-83
2022/04/08 05:24:58;;;;;;;4.20;1.15;;;8.30;93.50;;;;;;4848664;29;20092;-83
2022/04/08 05:27:25;;;;;;;4.72;1.15;;;8.30;93.60;;;;;;4843942;29;20058;-83
2022/04/08 05:29:52;;;;;;;3.35;0.90;;;8.30;93.60;;;;;;4843088;29;20492;-83
2022/04/08 05:32:19;;;;;;;4.13;1.20;;;8.30;93.70;;;;;;4842955;29;20060;-83
2022/04/08 05:34:47;;;;;;;3.95;1.13;;;8.30;93.90;;;;;;4843025;29;20085;-83
2022/04/08 05:37:15;;;;;;;5.90;1.10;;;8.30;94.60;;;;;;4847076;29;20085;-84
2022/04/08 05:39:42;;;;;;;5.65;1.20;;;8.30;94.80;;;;;;4845166;29;20105;-84
2022/04/08 05:42:09;;;;;;;6.07;1.00;;;8.30;95.00;;;;;;4842586;29;20064;-83
2022/04/08 05:44:36;;;;;;;5.22;0.90;;;8.30;95.40;;;;;;4843806;29;20114;-84
2022/04/08 05:47:03;;;;;;;4.55;0.75;;;8.30;96.00;;;;;;4847314;29;20113;-82
2022/04/08 05:49:30;;;;;;;7.20;1.10;;;8.20;97.20;;;;;;4851550;29;20137;-85
2022/04/08 05:51:59;;;;;;;4.07;1.02;;;8.20;99.10;;;;;;4832865;29;20125;-85
2022/04/08 05:54:26;;;;;;;9.55;1.50;;;8.10;99.90;;;;;;4845187;29;20053;-84
2022/04/08 05:56:53;;;;;;;3.83;1.10;;;8.10;99.90;;;;;;4842961;29;20411;-82
2022/04/08 05:59:20;;;;;;;4.55;1.08;;;8.00;99.90;;;;;;4842420;29;20060;-82
2022/04/08 06:01:47;;;;;;;5.80;1.23;;;8.00;99.90;;;;;;4844997;29;20061;-82
2022/04/08 06:04:14;;;;;;;5.97;1.30;;;8.00;99.90;;;;;;4846176;29;20140;-83
2022/04/08 06:06:43;;;;;;;8.43;1.33;;;7.80;99.90;;;;;;4846135;29;20058;-85
2022/04/08 06:09:11;;;;;;;5.15;1.65;;;7.80;99.90;;;;;;4858304;29;20050;-83
2022/04/08 06:11:39;;;;;;;3.55;0.90;;;7.70;99.90;;;;;;4845926;29;20050;-83
2022/04/08 06:14:06;;;;;;;3.58;1.10;;;7.70;99.90;;;;;;4829613;29;20465;-82
2022/04/08 06:16:33;;;;;;;7.47;1.08;;;7.60;99.90;;;;;;4845648;29;20133;-82
2022/04/08 06:19:00;;;;;;;9.48;1.08;;;7.70;99.90;;;;;;4845732;29;20476;-83
2022/04/08 06:21:27;;;;;;;3.67;0.90;;;7.70;99.90;;;;;;4845763;29;20062;-83
2022/04/08 06:23:54;;;;;;;6.70;0.98;;;7.60;99.90;;;;;;4829230;29;20050;-82
2022/04/08 06:26:23;;;;;;;4.10;0.80;;;7.60;99.90;;;;;;4845616;29;20137;-83
2022/04/08 06:28:50;;;;;;;4.38;0.90;;;7.60;99.90;;;;;;4829359;29;20056;-82
2022/04/08 06:31:18;;;;;;;6.25;0.90;;;7.60;99.90;;;;;;4829040;29;20053;-83
2022/04/08 06:33:45;;;;;;;3.65;0.95;;;7.60;99.90;;;;;;4828916;29;20099;-81
2022/04/08 06:36:12;;;;;;;3.58;0.90;;;7.60;99.90;;;;;;4845361;29;20531;-83
2022/04/08 06:38:39;;;;;;;5.50;1.08;;;7.70;99.90;;;;;;4845550;29;20415;-82
2022/04/08 06:41:06;;;;;;;4.72;0.75;;;7.60;99.90;;;;;;4845141;29;20060;-81
2022/04/08 06:43:34;;;;;;;3.80;1.00;;;7.60;99.90;;;;;;4845358;29;20056;-83
2022/04/08 06:46:01;;;;;;;3.80;0.90;;;7.60;99.90;;;;;;4845218;29;20058;-82
2022/04/08 06:48:29;;;;;;;5.07;1.10;;;7.60;99.90;;;;;;4845039;29;20148;-83
2022/04/08 06:50:58;;;;;;;5.70;1.20;;;7.50;99.90;;;;;;4844808;29;20412;-84
2022/04/08 06:53:25;;;;;;;4.75;1.10;;;7.40;99.90;;;;;;4845020;29;20535;-82
2022/04/08 06:55:52;;;;;;;4.60;1.45;;;7.30;99.90;;;;;;4845041;29;20054;-82
2022/04/08 06:58:20;;;;;;;3.95;0.80;;;7.30;99.90;;;;;;4845030;29;20054;-82
2022/04/08 07:00:48;;;;;;;4.43;1.05;;;7.20;99.90;;;;;;4845181;29;20061;-83
2022/04/08 07:03:15;;;;;;;5.22;0.75;;;7.20;99.90;;;;;;4858792;29;20057;-82
2022/04/08 07:05:42;;;;;;;3.90;0.80;;;7.20;99.90;;;;;;4863651;29;20050;-82
2022/04/08 07:08:09;;;;;;;2.72;0.70;;;7.10;99.90;;;;;;4863489;29;20084;-82
2022/04/08 07:10:38;;;;;;;3.58;0.90;;;7.10;99.90;;;;;;4863705;29;20046;-83
2022/04/08 07:13:06;;;;;;;4.88;1.05;;;7.10;99.90;;;;;;4847383;29;20050;-83
2022/04/08 07:15:33;;;;;;;3.47;1.27;;;7.10;99.90;;;;;;4865420;29;20057;-85
2022/04/08 07:18:04;;;;;;;2.50;0.75;;;7.10;99.90;;;;;;4857067;29;20085;-84
2022/04/08 07:20:32;;;;;;;3.63;0.85;;;6.90;99.90;;;;;;4858577;29;20057;-83
2022/04/08 07:23:01;;;;;;;5.18;1.20;;;6.90;99.90;;;;;;4841999;29;20137;-85
2022/04/08 07:25:29;;;;;;;3.90;0.60;;;7.00;99.90;;;;;;4857412;29;20053;-83
2022/04/08 07:27:58;;;;;;;3.45;0.60;;;7.00;99.90;;;;;;4849526;29;20053;-84
2022/04/08 07:30:26;;;;;;;2.80;0.65;;;7.10;99.90;;;;;;4837227;29;20504;-83
2022/04/08 07:32:54;;;;;;;6.57;0.90;;;7.20;99.90;;;;;;4853851;29;20056;-85
2022/04/08 07:35:26;;;;;;;4.20;0.70;;;7.10;99.90;;;;;;4844429;29;20139;-82
2022/04/08 07:37:53;;;;;;;2.47;0.70;;;7.10;99.90;;;;;;4844788;29;20413;-83
2022/04/08 07:40:21;;;;;;;2.08;0.70;;;7.10;99.90;;;;;;4844099;29;20058;-83
2022/04/08 07:42:48;;;;;;;3.85;0.90;;;7.20;99.90;;;;;;4844344;29;20141;-83
2022/04/08 07:45:15;;;;;;;3.70;0.80;;;7.30;99.90;;;;;;4844204;29;20080;-83
2022/04/08 07:47:43;;;;;;;3.28;0.90;;;7.40;99.90;;;;;;4845825;29;20057;-81
2022/04/08 07:50:13;;;;;;;2.28;0.80;;;7.10;99.90;;;;;;4856317;29;20103;-83
2022/04/08 07:52:42;;;;;;;3.33;0.80;;;7.10;99.90;;;;;;4843870;29;20046;-84
2022/04/08 07:55:12;;;;;;;2.53;0.93;;;7.10;99.90;;;;;;4844316;29;20061;-81
2022/04/08 07:57:51;;;;;;;5.13;1.05;;;7.40;99.90;;;;;;4842263;29;20053;-84
2022/04/08 08:00:22;;;;;;;2.65;0.90;;;7.40;99.90;;;;;;4843418;29;20053;-82
2022/04/08 08:02:50;;;;;;;3.53;0.98;;;7.30;99.90;;;;;;4843544;29;20146;-81
2022/04/08 08:05:18;;;;;;;3.25;0.90;;;7.60;99.90;;;;;;4847645;29;20480;-79
2022/04/08 08:07:50;;;;;;;4.40;0.90;;;7.60;99.90;;;;;;4827292;29;20064;-80
2022/04/08 08:10:19;;;;;;;3.80;0.90;;;7.80;99.90;;;;;;4860895;29;20073;-80
2022/04/08 08:12:47;;;;;;;3.60;0.77;;;7.80;99.90;;;;;;4859865;29;20057;-82
2022/04/08 08:15:15;;;;;;;3.42;0.65;;;7.90;99.90;;;;;;4861529;29;20052;-79
2022/04/08 08:17:43;;;;;;;3.17;0.90;;;8.10;99.90;;;;;;4861519;29;20132;-85
2022/04/08 08:20:12;;;;;;;3.53;0.70;;;8.20;99.90;;;;;;4861265;29;20060;-85
2022/04/08 08:22:39;;;;;;;2.58;1.05;;;8.10;99.90;;;;;;4861638;29;20487;-83
2022/04/08 08:25:10;;;;;;;2.20;0.65;;;8.20;99.90;;;;;;4861931;29;20081;-85
2022/04/08 08:27:39;;;;;;;2.50;0.73;;;8.30;99.90;;;;;;4855613;29;20106;-83
2022/04/08 08:30:10;;;;;;;1.85;0.52;;;8.30;99.90;;;;;;4862541;29;20530;-84
2022/04/08 08:32:37;;;;;;;2.70;0.80;;;8.40;99.90;;;;;;4861843;29;20061;-83
2022/04/08 08:35:07;;;;;;;2.72;0.90;;;8.30;99.90;;;;;;4861709;29;20049;-82
2022/04/08 08:37:35;;;;;;;2.75;0.82;;;8.40;99.90;;;;;;4861853;29;20060;-82
2022/04/08 08:40:03;;;;;;;2.90;0.80;;;8.40;99.90;;;;;;4861803;29;20132;-83
2022/04/08 08:42:33;;;;;;;2.35;0.82;;;8.30;99.90;;;;;;4862410;29;20061;-84
2022/04/08 08:45:00;;;;;;;2.65;0.70;;;8.40;99.90;;;;;;4861335;29;20045;-84
2022/04/08 08:47:28;;;;;;;2.72;0.70;;;8.40;99.90;;;;;;4861686;29;20054;-84
2022/04/08 08:49:56;;;;;;;2.55;0.90;;;8.40;99.90;;;;;;4838719;29;20058;-85
2022/04/08 08:52:24;;;;;;;3.75;0.85;;;8.40;99.90;;;;;;4859359;29;20398;-83
2022/04/08 08:54:52;;;;;;;2.28;0.60;;;8.60;99.90;;;;;;4859486;29;20057;-84
2022/04/08 08:57:21;;;;;;;3.42;0.80;;;8.70;99.90;;;;;;4860245;29;20061;-84
2022/04/08 08:59:52;;;;;;;2.53;0.90;;;8.60;99.90;;;;;;4842554;29;20057;-82
2022/04/08 09:02:22;;;;;;;2.00;0.70;;;8.60;99.90;;;;;;4858916;29;20562;-84
2022/04/08 09:04:50;;;;;;;2.85;1.10;;;8.50;99.90;;;;;;4859913;29;20049;-83
2022/04/08 09:07:25;;;;;;;3.20;0.80;;;8.50;99.90;;;;;;4857579;29;20064;-84
2022/04/08 09:09:53;;;;;;;1.80;0.60;;;8.70;99.90;;;;;;4859488;29;20465;-84
2022/04/08 09:12:23;;;;;;;1.60;0.77;;;8.80;99.90;;;;;;4859440;29;20054;-83
2022/04/08 09:14:53;;;;;;;1.40;0.50;;;8.90;99.90;;;;;;4847551;29;20060;-86
2022/04/08 09:17:21;;;;;;;1.20;0.50;;;8.80;99.90;;;;;;4862824;29;20061;-85
2022/04/08 09:19:49;;;;;;;4.65;1.50;;;8.60;99.90;;;;;;4862158;29;20073;-84
2022/04/08 09:22:17;;;;;;;4.57;1.48;;;8.90;99.90;;;;;;4858887;29;20060;-84
2022/04/08 09:24:44;;;;;;;3.75;1.00;;;8.90;99.90;;;;;;4850588;29;20053;-81
2022/04/08 09:27:12;;;;;;;1.50;0.55;;;9.00;99.90;;;;;;4855369;29;20060;-84
2022/04/08 09:29:43;;;;;;;2.85;0.60;;;9.10;99.90;;;;;;4840356;29;20065;-82
2022/04/08 09:32:15;;;;;;;1.88;0.60;;;9.00;99.90;;;;;;4858389;29;20055;-83
2022/04/08 09:34:43;;;;;;;1.40;0.55;;;8.50;99.90;;;;;;4860297;29;20068;-83
2022/04/08 09:37:15;;;;;;;2.63;0.80;;;8.60;99.90;;;;;;4853186;29;20060;-79
2022/04/08 09:39:57;;;;;;;1.60;0.60;;;8.90;99.90;;;;;;4831228;29;20050;-88
2022/04/08 09:42:25;;;;;;;1.65;0.73;;;9.10;99.90;;;;;;4850555;29;20056;-88
2022/04/08 09:44:53;;;;;;;1.60;0.52;;;9.10;99.90;;;;;;4857352;29;20075;-81
2022/04/08 09:47:21;;;;;;;1.45;0.60;;;9.20;99.90;;;;;;4852398;29;20060;-83
2022/04/08 09:49:48;;;;;;;2.03;0.60;;;9.10;99.90;;;;;;4858631;29;20050;-83
2022/04/08 09:52:17;;;;;;;2.65;0.60;;;8.80;99.90;;;;;;4851625;29;20064;-85
2022/04/08 09:54:45;;;;;;;1.30;0.50;;;8.70;99.90;;;;;;4845538;29;20053;-84
2022/04/08 09:57:19;;;;;;;2.20;0.70;;;8.80;99.90;;;;;;4860726;29;20056;-83
2022/04/08 09:59:48;;;;;;;1.50;0.60;;;9.10;99.90;;;;;;4852891;29;20105;-83
2022/04/08 10:02:16;;;;;;;1.70;0.40;;;9.10;99.90;;;;;;4863521;29;20065;-84
2022/04/08 10:04:45;;;;;;;1.38;0.50;;;9.10;99.90;;;;;;4864692;29;20131;-83
2022/04/08 10:07:13;;;;;;;2.83;0.85;;;9.10;99.90;;;;;;4864365;29;20053;-84
2022/04/08 10:09:50;;;;;;;5.05;2.03;;;9.10;99.90;;;;;;4873022;29;20056;-84
2022/04/08 10:12:26;;;;;;;6.78;2.80;;;9.00;99.90;;;;;;4847053;29;20065;-84
2022/04/08 10:15:05;;;;;;;4.05;1.45;;;8.90;99.90;;;;;;4847576;29;20530;-84
2022/04/08 10:17:32;;;;;;;4.15;1.70;;;8.80;99.90;;;;;;4871913;29;20056;-84
2022/04/08 10:20:20;;;;;;;5.70;2.00;;;8.70;99.90;;;;;;4864047;29;20057;-84
2022/04/08 10:22:49;;;;;;;3.00;1.10;;;8.80;99.90;;;;;;4864538;29;20061;-84
2022/04/08 10:25:18;;;;;;;2.45;1.02;;;8.80;99.90;;;;;;4864645;29;20057;-84
2022/04/08 10:27:46;;;;;;;1.50;0.60;;;8.70;99.90;;;;;;4867405;29;20051;-84
2022/04/08 10:30:16;;;;;;;1.63;0.63;;;8.70;99.90;;;;;;4868513;29;20085;-85
2022/04/08 10:32:44;;;;;;;2.42;0.60;;;8.50;99.90;;;;;;4868639;29;20068;-83
2022/04/08 10:35:20;;;;;;;2.30;0.70;;;8.50;99.90;;;;;;4852159;29;20488;-85
2022/04/08 10:37:59;;;;;;;1.23;0.43;;;8.50;99.90;;;;;;4860945;29;20061;-85
2022/04/08 10:40:34;;;;;;;1.52;0.50;;;8.40;99.90;;;;;;4867715;29;20058;-84
2022/04/08 10:43:04;;;;;;;1.10;0.50;;;8.20;99.90;;;;;;4867681;29;20459;-84
2022/04/08 10:45:31;;;;;;;1.67;0.57;;;8.20;99.90;;;;;;4864505;29;20053;-85
2022/04/08 10:48:01;;;;;;;1.75;0.77;;;8.40;99.90;;;;;;4847054;29;20060;-86
2022/04/08 10:50:31;;;;;;;1.85;0.65;;;8.40;99.90;;;;;;4863900;29;20049;-85
2022/04/08 10:53:07;;;;;;;1.52;0.63;;;8.30;99.90;;;;;;4863620;29;20389;-86
2022/04/08 10:55:47;;;;;;;3.70;1.00;;;8.10;99.90;;;;;;4863992;29;20081;-84
2022/04/08 10:58:15;;;;;;;3.10;1.05;;;7.90;99.90;;;;;;4862865;29;20049;-84
2022/04/08 11:00:44;;;;;;;2.90;1.08;;;8.10;99.90;;;;;;4847269;29;20121;-85
2022/04/08 11:03:12;;;;;;;5.68;1.90;;;8.10;99.90;;;;;;4863152;29;20503;-85
2022/04/08 11:05:40;;;;;;;4.00;1.40;;;8.00;99.90;;;;;;4858029;29;20060;-84
2022/04/08 11:08:08;;;;;;;2.63;0.90;;;7.90;99.90;;;;;;4846462;29;20064;-84
2022/04/08 11:10:35;;;;;;;2.08;0.70;;;7.80;99.90;;;;;;4863236;29;20456;-84
2022/04/08 11:13:03;;;;;;;1.70;0.73;;;7.90;99.90;;;;;;4863586;29;20088;-85
2022/04/08 11:15:31;;;;;;;2.92;1.20;;;8.10;99.90;;;;;;4863950;29;20060;-84
2022/04/08 11:18:01;;;;;;;3.55;1.00;;;7.70;99.90;;;;;;4863325;29;20054;-85
2022/04/08 11:20:28;;;;;;;3.08;1.30;;;7.80;99.90;;;;;;4863312;29;20061;-83
2022/04/08 11:22:58;;;;;;;4.13;1.30;;;7.90;99.90;;;;;;4862936;29;20046;-84
2022/04/08 11:25:27;;;;;;;4.07;1.38;;;7.90;99.90;;;;;;4863215;29;20092;-85
2022/04/08 11:28:03;;;;;;;3.20;1.00;;;8.00;99.90;;;;;;4846896;29;20563;-85
2022/04/08 11:30:31;;;;;;;2.97;1.20;;;7.90;99.90;;;;;;4863037;29;20053;-84
2022/04/08 11:32:59;;;;;;;2.75;1.20;;;8.00;99.90;;;;;;4862986;29;20518;-85
2022/04/08 11:35:31;;;;;;;2.88;1.00;;;7.90;99.90;;;;;;4832900;29;20049;-85
2022/04/08 11:38:00;;;;;;;2.83;1.00;;;7.90;99.90;;;;;;4861625;29;20089;-81
2022/04/08 11:40:27;;;;;;;3.45;1.10;;;7.80;99.90;;;;;;4836702;29;20056;-83
2022/04/08 11:42:59;;;;;;;2.95;1.33;;;7.80;99.90;;;;;;4852910;29;20054;-84
2022/04/08 11:45:26;;;;;;;3.88;1.42;;;7.90;99.90;;;;;;4833003;29;20053;-84
2022/04/08 11:47:53;;;;;;;3.03;1.13;;;7.90;99.90;;;;;;4840797;29;20053;-85
2022/04/08 11:50:25;;;;;;;3.10;1.17;;;7.80;99.90;;;;;;4860728;29;20057;-85
2022/04/08 11:52:53;;;;;;;3.72;1.20;;;7.90;99.90;;;;;;4861104;29;20046;-87
2022/04/08 11:55:26;;;;;;;3.70;1.20;;;8.00;99.90;;;;;;4860880;29;20510;-88
2022/04/08 11:57:54;;;;;;;4.00;1.20;;;7.80;99.90;;;;;;4845976;29;20041;-89
2022/04/08 12:00:28;;;;;;;2.63;1.38;;;7.80;99.90;;;;;;4859680;29;20065;-88
2022/04/08 12:02:58;;;;;;;3.15;1.50;;;8.00;99.90;;;;;;4842856;29;20045;-90
2022/04/08 12:05:27;;;;;;;3.55;1.30;;;7.90;99.90;;;;;;4847126;29;20393;-87
2022/04/08 12:07:59;;;;;;;4.10;1.98;;;7.60;99.90;;;;;;4836451;29;20136;-88
2022/04/08 12:10:28;;;;;;;4.70;1.60;;;7.60;99.90;;;;;;4847167;29;20049;-86
2022/04/08 12:12:56;;;;;;;6.97;2.55;;;7.90;99.90;;;;;;4855241;29;20411;-88
2022/04/08 12:15:23;;;;;;;7.07;3.05;;;8.10;99.90;;;;;;4840612;29;20516;-87
2022/04/08 12:17:51;;;;;;;3.90;1.90;;;8.10;99.90;;;;;;4858901;29;20054;-89
2022/04/08 12:20:20;;;;;;;4.43;1.70;;;8.00;99.90;;;;;;4856497;29;20108;-86
2022/04/08 12:22:49;;;;;;;3.80;1.30;;;7.90;99.90;;;;;;4858136;29;20411;-89
2022/04/08 12:25:18;;;;;;;3.70;1.40;;;7.90;99.90;;;;;;4858910;29;20060;-88
2022/04/08 12:27:53;;;;;;;2.78;1.30;;;7.80;99.90;;;;;;4858429;29;20050;-90
2022/04/08 12:30:28;;;;;;;2.63;1.25;;;8.00;99.90;;;;;;4851670;29;20109;-91
2022/04/08 12:32:55;;;;;;;3.60;1.40;;;7.80;99.90;;;;;;4852302;29;20083;-86
2022/04/08 12:35:23;;;;;;;4.22;1.80;;;7.80;99.90;;;;;;4854388;29;20060;-79
2022/04/08 12:37:50;;;;;;;4.07;1.80;;;7.90;99.90;;;;;;4848557;29;20490;-82
2022/04/08 12:40:17;;;;;;;4.20;2.03;;;7.80;99.90;;;;;;4854034;29;20053;-81
2022/04/08 12:42:46;;;;;;;3.63;1.40;;;7.70;99.90;;;;;;4857528;29;20144;-82
2022/04/08 12:45:13;;;;;;;3.20;1.50;;;7.60;99.90;;;;;;4858873;29;20058;-83
2022/04/08 12:47:40;;;;;;;3.10;1.60;;;7.80;99.90;;;;;;4842299;29;20064;-81
2022/04/08 12:50:10;;;;;;;3.38;1.60;;;7.70;99.90;;;;;;4858879;29;20061;-83
2022/04/08 12:52:37;;;;;;;3.25;1.40;;;7.70;99.90;;;;;;4859032;29;20148;-82
2022/04/08 12:55:07;;;;;;;3.03;1.27;;;7.60;99.90;;;;;;4852195;29;20053;-83
2022/04/08 12:57:34;;;;;;;2.70;1.27;;;7.60;99.90;;;;;;4849397;29;20053;-82
2022/04/08 13:00:11;;;;;;;3.10;1.60;;;7.60;99.90;;;;;;4850584;29;20506;-81
2022/04/08 13:02:39;;;;;;;3.78;1.30;;;7.60;99.90;;;;;;4857692;29;20492;-82
2022/04/08 13:05:07;;;;;;;2.45;1.20;;;7.70;99.90;;;;;;4855096;29;20083;-83
2022/04/08 13:07:34;;;;;;;2.67;1.25;;;7.80;99.90;;;;;;4850518;29;20050;-82
2022/04/08 13:10:01;;;;;;;3.50;1.42;;;7.80;99.90;;;;;;4855168;29;20079;-83
2022/04/08 13:12:28;;;;;;;3.00;1.20;;;7.70;99.90;;;;;;4854401;29;20058;-83
2022/04/08 13:14:55;;;;;;;2.85;1.27;;;7.80;99.90;;;;;;4848210;29;20046;-83
2022/04/08 13:17:24;;;;;;;3.47;1.50;;;7.80;99.90;;;;;;4851793;29;20435;-83
2022/04/08 13:19:52;;;;;;;3.40;1.20;;;7.60;99.90;;;;;;4841583;29;20049;-82
2022/04/08 13:22:19;;;;;;;3.15;1.50;;;7.70;99.90;;;;;;4850438;29;20499;-84
2022/04/08 13:24:46;;;;;;;3.83;1.50;;;7.80;99.90;;;;;;4856635;29;20407;-82
2022/04/08 13:27:13;;;;;;;2.40;1.00;;;7.90;99.90;;;;;;4852677;29;20053;-84
2022/04/08 13:29:44;;;;;;;2.55;1.00;;;8.00;99.90;;;;;;4842068;29;20522;-84
2022/04/08 13:32:11;;;;;;;2.58;1.00;;;7.90;99.90;;;;;;4858720;29;20050;-84
2022/04/08 13:34:40;;;;;;;3.30;1.20;;;7.90;99.90;;;;;;4852924;29;20057;-84
2022/04/08 13:37:08;;;;;;;2.53;1.20;;;7.90;99.90;;;;;;4849749;29;20490;-83
2022/04/08 13:39:36;;;;;;;5.05;2.20;;;7.80;99.90;;;;;;4850375;29;20057;-84
2022/04/08 13:42:04;;;;;;;3.63;1.60;;;7.90;99.90;;;;;;4853959;29;20057;-84
2022/04/08 13:44:33;;;;;;;2.25;1.02;;;7.90;99.90;;;;;;4841166;29;20053;-82
2022/04/08 13:47:00;;;;;;;2.65;1.00;;;8.00;99.90;;;;;;4842796;29;20255;-85
2022/04/08 13:49:27;;;;;;;2.85;1.13;;;7.90;99.90;;;;;;4860382;29;20050;-84
2022/04/08 13:51:56;;;;;;;2.90;1.25;;;7.80;99.90;;;;;;4838359;29;20050;-82
2022/04/08 13:54:23;;;;;;;2.42;1.30;;;7.80;99.90;;;;;;4857611;29;20094;-82
2022/04/08 13:56:50;;;;;;;2.40;1.20;;;7.90;99.90;;;;;;4857387;29;20064;-81
2022/04/08 13:59:17;;;;;;;3.17;1.33;;;7.90;99.90;;;;;;4849742;29;20445;-82
2022/04/08 14:01:44;;;;;;;2.90;1.45;;;7.80;99.90;;;;;;4851491;29;20072;-81
2022/04/08 14:04:11;;;;;;;3.03;1.30;;;7.90;99.90;;;;;;4856481;29;20050;-82
2022/04/08 14:06:39;;;;;;;3.55;1.50;;;7.80;99.90;;;;;;4852392;29;20125;-82
2022/04/08 14:09:07;;;;;;;2.65;1.23;;;7.70;99.90;;;;;;4849171;29;20068;-83
2022/04/08 14:11:36;;;;;;;2.47;1.27;;;7.80;99.90;;;;;;4853930;29;20053;-82
2022/04/08 14:14:03;;;;;;;2.92;1.10;;;8.00;99.90;;;;;;4853216;29;20063;-80
2022/04/08 14:16:30;;;;;;;3.33;1.02;;;8.10;99.90;;;;;;4857602;29;20080;-81
2022/04/08 14:18:58;;;;;;;2.97;1.20;;;8.10;99.90;;;;;;4856892;29;20060;-81
2022/04/08 14:21:25;;;;;;;2.95;1.40;;;8.20;99.90;;;;;;4868443;29;20064;-81
2022/04/08 14:23:53;;;;;;;3.03;1.20;;;8.20;99.90;;;;;;4860154;29;20053;-80
2022/04/08 14:26:22;;;;;;;3.28;1.27;;;8.20;99.90;;;;;;4856518;29;20071;-82
2022/04/08 14:28:49;;;;;;;2.80;1.20;;;8.30;99.90;;;;;;4858494;29;20053;-81
2022/04/08 14:31:17;;;;;;;2.90;1.40;;;8.50;99.90;;;;;;4858253;29;20113;-83
2022/04/08 14:33:44;;;;;;;3.63;1.63;;;8.50;99.90;;;;;;4859876;29;20053;-82
2022/04/08 14:36:11;;;;;;;3.08;1.30;;;8.50;99.90;;;;;;4858132;29;20059;-81
2022/04/08 14:38:38;;;;;;;3.45;1.45;;;8.60;99.90;;;;;;4858211;29;20140;-81
2022/04/08 14:41:07;;;;;;;2.97;1.13;;;8.60;99.90;;;;;;4855952;29;20060;-82
2022/04/08 14:43:36;;;;;;;2.90;1.10;;;8.80;99.90;;;;;;4855463;29;20057;-85
2022/04/08 14:46:03;;;;;;;2.38;1.00;;;9.00;99.90;;;;;;4851788;29;20049;-84
2022/04/08 14:48:31;;;;;;;2.90;1.10;;;9.10;99.90;;;;;;4854607;29;20476;-84
2022/04/08 14:50:58;;;;;;;2.75;1.00;;;9.30;99.90;;;;;;4858975;29;20089;-82
2022/04/08 14:53:26;;;;;;;3.28;1.23;;;9.40;99.90;;;;;;4844405;29;20058;-83
2022/04/08 14:55:53;;;;;;;2.60;0.93;;;9.60;99.90;;;;;;4854630;29;20449;-82
2022/04/08 14:58:20;;;;;;;2.78;1.02;;;9.80;99.90;;;;;;4844707;29;20153;-81
2022/04/08 15:00:49;;;;;;;4.68;0.90;;;10.00;99.90;;;;;;4858212;29;20064;-84
2022/04/08 15:03:16;;;;;;;4.05;0.93;;;10.10;99.90;;;;;;4861074;29;20385;-84
2022/04/08 15:05:43;;;;;;;3.30;0.95;;;10.00;99.90;;;;;;4862010;29;20142;-83
2022/04/08 15:08:10;;;;;;;2.78;0.90;;;10.10;99.90;;;;;;4861272;29;20054;-84
2022/04/08 15:10:37;;;;;;;4.60;1.23;;;10.10;99.90;;;;;;4864203;29;20057;-83
2022/04/08 15:13:04;;;;;;;4.72;1.00;;;10.20;99.90;;;;;;4864575;29;20169;-84
2022/04/08 15:15:31;;;;;;;2.30;0.90;;;10.30;99.90;;;;;;4862514;29;20137;-82
2022/04/08 15:18:00;;;;;;;3.13;1.10;;;10.60;99.90;;;;;;4862497;29;20117;-84
2022/04/08 15:20:27;;;;;;;2.20;0.68;;;10.70;99.90;;;;;;4862090;29;20076;-83
2022/04/08 15:22:55;;;;;;;3.00;0.95;;;10.80;99.90;;;;;;4860042;29;20140;-84
2022/04/08 15:25:23;;;;;;;2.10;0.65;;;11.60;99.90;;;;;;4842331;29;20607;-83
2022/04/08 15:27:50;;;;;;;2.42;0.75;;;12.00;99.90;;;;;;4841987;29;20129;-80
2022/04/08 15:30:18;;;;;;;2.15;0.85;;;11.50;99.90;;;;;;4828138;29;20109;-83
2022/04/08 15:32:45;;;;;;;1.90;0.70;;;11.40;99.90;;;;;;4856402;29;20050;-83
2022/04/08 15:35:13;;;;;;;2.90;0.90;;;12.80;99.90;;;;;;4861841;29;20496;-85
2022/04/08 15:37:42;;;;;;;2.05;0.68;;;12.20;99.90;;;;;;4868937;29;20045;-84
2022/04/08 15:40:11;;;;;;;3.28;0.65;;;13.90;99.90;;;;;;4854249;29;20080;-82
2022/04/08 15:42:38;;;;;;;3.55;0.93;;;15.50;99.90;;;;;;4856424;29;20073;-83
2022/04/08 15:45:07;;;;;;;1.35;0.60;;;15.30;99.90;;;;;;4858664;29;20415;-82
2022/04/08 15:47:34;;;;;;;1.20;0.43;;;15.30;99.90;;;;;;4859596;29;20168;-81
2022/04/08 15:50:04;;;;;;;1.60;0.52;;;15.90;99.80;;;;;;4865042;29;20119;-82
2022/04/08 15:52:33;;;;;;;1.73;0.60;;;15.70;98.50;;;;;;4858846;29;20064;-80
2022/04/08 15:55:01;;;;;;;2.17;0.70;;;15.70;99.20;;;;;;4861810;29;20140;-83
2022/04/08 15:57:29;;;;;;;1.58;0.60;;;14.90;99.90;;;;;;4856297;29;20059;-81
2022/04/08 15:59:56;;;;;;;2.78;0.60;;;13.50;99.90;;;;;;4855400;29;20065;-79
2022/04/08 16:02:23;;;;;;;2.40;0.60;;;13.10;99.90;;;;;;4861893;29;20136;-85
2022/04/08 16:04:50;;;;;;;2.05;0.63;;;12.80;99.90;;;;;;4860022;29;20140;-81
2022/04/08 16:07:17;;;;;;;0.93;0.50;;;12.50;99.90;;;;;;4868511;29;20074;-84
2022/04/08 16:09:46;;;;;;;2.60;0.80;;;12.40;99.90;;;;;;4868225;29;20077;-83
2022/04/08 16:12:13;;;;;;;1.95;0.60;;;12.10;99.90;;;;;;4864696;29;20049;-82
2022/04/08 16:14:40;;;;;;;2.88;0.70;;;12.00;99.90;;;;;;4861421;29;20093;-84
2022/04/08 16:17:07;;;;;;;2.03;0.50;;;11.90;99.90;;;;;;4863769;29;20063;-87
2022/04/08 16:19:35;;;;;;;1.15;0.60;;;11.90;99.90;;;;;;4869141;29;20049;-87
2022/04/08 16:22:02;;;;;;;3.08;0.70;;;11.90;99.90;;;;;;4866462;29;20411;-88
2022/04/08 16:24:29;;;;;;;1.50;0.70;;;11.90;99.90;;;;;;4857670;29;20076;-87
2022/04/08 16:26:58;;;;;;;2.83;0.60;;;11.90;99.90;;;;;;4830395;29;20098;-86
2022/04/08 16:29:25;;;;;;;2.10;0.70;;;11.90;99.90;;;;;;4849842;29;20492;-86
2022/04/08 16:31:53;;;;;;;2.60;0.80;;;11.80;99.90;;;;;;4853486;29;20046;-87
2022/04/08 16:34:21;;;;;;;2.45;0.90;;;11.70;99.90;;;;;;4858614;29;20073;-86
2022/04/08 16:36:49;;;;;;;1.67;0.70;;;11.80;99.90;;;;;;4853741;29;20106;-85
2022/04/08 16:39:16;;;;;;;2.17;0.70;;;11.80;99.90;;;;;;4857306;29;20125;-86
2022/04/08 16:41:44;;;;;;;1.92;0.80;;;11.70;99.90;;;;;;4859201;29;20180;-84
2022/04/08 16:44:13;;;;;;;2.30;0.73;;;11.70;99.90;;;;;;4866584;29;20041;-85
2022/04/08 16:46:41;;;;;;;1.85;0.70;;;11.70;99.90;;;;;;4845756;29;20091;-88
2022/04/08 16:49:08;;;;;;;2.95;0.63;;;11.70;99.90;;;;;;4866707;29;20054;-87
2022/04/08 16:51:35;;;;;;;1.42;0.50;;;11.80;99.90;;;;;;4857911;29;20081;-85
2022/04/08 16:54:03;;;;;;;2.40;0.70;;;11.80;99.90;;;;;;4860826;29;20077;-83
2022/04/08 16:56:30;;;;;;;1.13;0.60;;;11.70;99.90;;;;;;4843145;29;20164;-86
2022/04/08 16:58:58;;;;;;;1.52;0.70;;;11.80;99.90;;;;;;4864786;29;20113;-87
2022/04/08 17:01:27;;;;;;;1.80;0.68;;;11.70;99.90;;;;;;4859052;29;20523;-87
2022/04/08 17:03:55;;;;;;;2.38;0.60;;;11.50;99.90;;;;;;4839808;29;20208;-81
2022/04/08 17:06:22;;;;;;;1.45;0.40;;;11.30;99.90;;;;;;4846624;29;20064;-79
2022/04/08 17:08:50;;;;;;;3.22;0.60;;;10.30;99.90;;;;;;4845843;29;20132;-80
2022/04/08 17:11:17;;;;;;;2.05;0.45;;;8.90;99.90;;;;;;4847676;29;20060;-82
2022/04/08 17:13:44;;;;;;;1.15;0.30;;;8.20;99.90;;;;;;4846385;29;20042;-81
2022/04/08 17:16:12;;;;;;;1.30;0.50;;;8.00;99.90;;;;;;4845083;29;20049;-79
2022/04/08 17:18:41;;;;;;;1.75;0.45;;;8.00;99.90;;;;;;4844814;29;20057;-79
2022/04/08 17:21:09;;;;;;;1.38;0.50;;;8.00;99.90;;;;;;4839032;29;20057;-80
2022/04/08 17:23:36;;;;;;;1.75;0.40;;;8.10;99.90;;;;;;4853747;29;20058;-78
2022/04/08 17:26:04;;;;;;;1.90;0.50;;;7.80;99.90;;;;;;4850800;29;20431;-78
2022/04/08 17:28:31;;;;;;;2.30;0.55;;;7.60;99.90;;;;;;4856641;29;20046;-79
2022/04/08 17:30:58;;;;;;;1.60;0.55;;;7.70;99.90;;;;;;4849551;29;20144;-82
2022/04/08 17:33:26;;;;;;;2.00;0.35;;;7.80;99.90;;;;;;4850888;29;20058;-86
2022/04/08 17:35:55;;;;;;;1.20;0.43;;;8.10;99.90;;;;;;4849940;29;20077;-80
2022/04/08 17:38:22;;;;;;;3.08;0.57;;;8.20;99.90;;;;;;4857855;29;20733;-81
2022/04/08 17:40:54;;;;;;;1.95;0.60;;;8.30;99.90;;;;;;4859444;29;20057;-80
2022/04/08 17:43:22;;;;;;;2.22;0.70;;;8.20;99.90;;;;;;4861863;29;20106;-83
2022/04/08 17:45:49;;;;;;;2.95;0.82;;;8.10;99.90;;;;;;4866314;29;20065;-84
2022/04/08 17:48:17;;;;;;;2.17;0.63;;;8.20;99.90;;;;;;4864645;29;20054;-85
2022/04/08 17:50:44;;;;;;;1.95;0.60;;;8.20;99.90;;;;;;4864499;29;20114;-85
2022/04/08 17:53:14;;;;;;;1.48;0.57;;;8.00;99.90;;;;;;4847931;29;20085;-81
2022/04/08 17:55:41;;;;;;;2.50;0.50;;;8.10;99.90;;;;;;4858965;29;20516;-82
2022/04/08 17:58:08;;;;;;;1.35;0.50;;;8.20;99.90;;;;;;4866639;29;20053;-87
2022/04/08 18:00:36;;;;;;;1.95;0.47;;;8.20;99.90;;;;;;4863811;29;20082;-85